TAF PASI
AMD PASI 082147Z 0822/0918 28015G25KT 5SM -SHRASN BR FEW008 BKN035 FM090500 27010KT P6SM -SHSNRA SCT025 BKN035=
METAR PASI
WC PASI
WS PASI
WV PASI